Terminal Aerodrome Forecast
Issued by NWS

Home | Current Version | Previous Version | Text Only | Print | Product List | Glossary On
Versions: 1 2 3 4 5 6 7 8 9 10 11 12
458
FTUS46 KSTO 230527
TAFSCK
TAF
KSCK 230527Z 2306/2406 30010KT P6SM SKC
     FM232000 32010G20KT P6SM SKC=

USA.gov is the U.S. government's official web portal to all federal, state and local government web resources and services.